Airport View

Enter AWOS ICAO identifier for current METAR.

ex. KFNL

KHLX 101615Z AUTO 00000KT 10SM CLR 26/14 A3020 RMK AO2 T02640137

10 Aug 2020 16:28

Frequency: 118.375

Phone: 276-728-5897

Other Area AWOS: KMWK - KPSK - KMKJ - KBCB

TAF KBCB 101120Z 1012/1112 VRB03KT P6SM BKN050 FM101700 21003KT P6SM BKN070 FM102300 16003KT P6SM SKC FM110800 00000KT 6SM BR SCT006